Time;durP1;ratioP1;P1;durP2;ratioP2;P2;SDS_P1;SDS_P2;PMS_P1;PMS_P2;Temp;Humidity;BMP_temperature;BMP_pressure;BME280_temperature;BME280_humidity;BME280_pressure;Samples;Min_cycle;Max_cycle;Signal;HPM_P1;HPM_P2
2020/12/02 00:02:10;;;;;;;161.95;88.55;;;1.10;99.90;;;;;;5089319;28;20403;-73
2020/12/02 00:04:37;;;;;;;169.05;95.72;;;1.10;99.90;;;;;;5090682;28;20368;-73
2020/12/02 00:07:05;;;;;;;175.00;94.90;;;1.10;99.90;;;;;;5090581;28;20361;-72
2020/12/02 00:09:31;;;;;;;199.75;106.45;;;1.00;99.90;;;;;;5090530;28;20687;-74
2020/12/02 00:11:57;;;;;;;238.23;124.30;;;1.10;99.90;;;;;;5090416;28;20375;-73
2020/12/02 00:14:26;;;;;;;196.23;107.10;;;1.20;99.90;;;;;;5090594;28;20368;-74
2020/12/02 00:16:53;;;;;;;173.15;94.57;;;1.20;99.90;;;;;;5090141;28;20851;-72
2020/12/02 00:19:20;;;;;;;166.88;94.15;;;1.30;99.90;;;;;;5090673;28;20403;-73
2020/12/02 00:22:06;;;;;;;162.40;93.43;;;1.30;99.90;;;;;;5090751;28;20365;-73
2020/12/02 00:24:34;;;;;;;152.10;86.13;;;1.40;99.90;;;;;;5090299;28;20364;-73
2020/12/02 00:27:06;;;;;;;154.43;85.13;;;1.30;99.90;;;;;;5090590;28;20897;-73
2020/12/02 00:29:32;;;;;;;163.63;89.75;;;1.20;99.90;;;;;;5089524;28;20368;-74
2020/12/02 00:31:58;;;;;;;186.40;104.40;;;1.20;99.90;;;;;;5089832;28;20390;-74
2020/12/02 00:34:24;;;;;;;191.17;102.00;;;1.20;99.90;;;;;;5090478;28;20862;-74
2020/12/02 00:36:50;;;;;;;225.73;116.70;;;1.20;99.90;;;;;;5090174;28;20365;-73
2020/12/02 00:39:15;;;;;;;236.83;126.73;;;1.20;99.90;;;;;;5090110;28;20372;-74
2020/12/02 00:41:44;;;;;;;253.93;137.73;;;1.10;99.90;;;;;;5090415;28;20429;-74
2020/12/02 00:44:10;;;;;;;243.52;131.80;;;1.10;99.90;;;;;;5090513;28;20485;-74
2020/12/02 00:46:36;;;;;;;262.25;139.10;;;1.10;99.90;;;;;;5089749;28;20416;-74
2020/12/02 00:49:02;;;;;;;271.60;147.07;;;1.00;99.90;;;;;;5090285;28;20428;-74
2020/12/02 00:51:28;;;;;;;247.07;136.02;;;1.00;99.90;;;;;;5090208;28;21035;-73
2020/12/02 00:53:54;;;;;;;234.70;130.32;;;1.00;99.90;;;;;;5089967;28;20380;-73
2020/12/02 00:56:20;;;;;;;231.75;127.32;;;1.10;99.90;;;;;;5090255;28;20375;-74
2020/12/02 00:59:09;;;;;;;218.77;121.55;;;1.10;99.90;;;;;;5090234;28;20734;-73
2020/12/02 01:01:40;;;;;;;230.70;124.60;;;1.10;99.90;;;;;;5089677;28;20357;-74
2020/12/02 01:04:16;;;;;;;226.38;127.03;;;1.10;99.90;;;;;;5090149;28;20835;-73
2020/12/02 01:06:45;;;;;;;239.02;131.88;;;0.90;99.90;;;;;;5090253;28;20373;-73
2020/12/02 01:09:15;;;;;;;252.68;135.15;;;0.90;99.90;;;;;;5089413;28;20836;-73
2020/12/02 01:11:42;;;;;;;241.48;131.52;;;0.80;99.90;;;;;;5089629;28;20382;-73
2020/12/02 01:14:12;;;;;;;249.13;135.75;;;0.60;99.90;;;;;;5088433;28;20388;-72
2020/12/02 01:16:51;;;;;;;272.30;140.55;;;0.60;99.90;;;;;;5088511;28;20369;-73
2020/12/02 01:19:21;;;;;;;252.10;133.45;;;0.60;99.90;;;;;;5088897;28;20371;-73
2020/12/02 01:21:50;;;;;;;241.88;127.72;;;0.60;99.90;;;;;;5090448;28;20419;-73
2020/12/02 01:24:22;;;;;;;243.50;125.25;;;0.70;99.90;;;;;;5089834;28;20821;-72
2020/12/02 01:27:21;;;;;;;185.82;102.68;;;0.60;99.90;;;;;;5086594;28;20368;-71
2020/12/02 01:29:49;;;;;;;180.98;101.53;;;0.60;99.90;;;;;;5089334;28;20434;-71
2020/12/02 01:32:16;;;;;;;182.85;100.03;;;0.60;99.90;;;;;;5089295;28;20404;-71
2020/12/02 01:34:46;;;;;;;249.07;102.00;;;0.60;99.90;;;;;;5089550;28;20373;-71
2020/12/02 01:37:34;;;;;;;155.53;87.07;;;0.50;99.90;;;;;;5089492;28;20442;-71
2020/12/02 01:40:23;;;;;;;143.80;82.80;;;0.50;99.90;;;;;;5089275;28;20375;-71
2020/12/02 01:43:01;;;;;;;140.32;81.60;;;0.40;99.90;;;;;;5090097;28;20372;-74
2020/12/02 01:45:30;;;;;;;157.02;88.32;;;0.40;99.90;;;;;;5090006;28;20368;-74
2020/12/02 01:48:08;;;;;;;178.48;93.75;;;0.50;99.90;;;;;;5089954;28;20370;-73
2020/12/02 01:51:15;;;;;;;287.55;129.93;;;0.40;99.90;;;;;;5089945;28;20376;-74
2020/12/02 01:53:49;;;;;;;562.55;254.02;;;0.40;99.90;;;;;;5082205;28;20453;-74
2020/12/02 01:56:41;;;;;;;458.63;201.23;;;0.30;99.90;;;;;;5089025;28;20403;-74
2020/12/02 01:59:17;;;;;;;414.95;185.40;;;0.40;99.90;;;;;;5090307;28;20445;-74
2020/12/02 02:01:51;;;;;;;375.88;169.30;;;0.30;99.90;;;;;;5090194;28;20368;-74
2020/12/02 02:04:25;;;;;;;522.13;242.20;;;0.30;99.90;;;;;;5088900;28;20378;-74
2020/12/02 02:07:00;;;;;;;273.98;139.88;;;0.40;99.90;;;;;;5088768;28;20723;-74
2020/12/02 02:09:27;;;;;;;244.02;131.00;;;0.30;99.90;;;;;;5090050;28;20384;-74
2020/12/02 02:12:11;;;;;;;239.10;123.15;;;0.30;99.90;;;;;;5090217;28;20480;-74
2020/12/02 02:15:07;;;;;;;216.60;123.22;;;0.30;99.90;;;;;;5090835;28;20360;-74
2020/12/02 02:17:32;;;;;;;226.25;125.88;;;0.10;99.90;;;;;;5090735;28;20387;-74
2020/12/02 02:19:58;;;;;;;224.77;128.45;;;0.10;99.90;;;;;;5090897;28;20360;-75
2020/12/02 02:22:25;;;;;;;220.85;126.13;;;0.10;99.90;;;;;;5090533;28;20417;-74
2020/12/02 02:24:51;;;;;;;224.25;126.38;;;0.00;99.90;;;;;;5090798;28;20441;-74
2020/12/02 02:27:23;;;;;;;216.45;121.95;;;0.00;99.90;;;;;;5090304;28;20376;-75
2020/12/02 02:29:48;;;;;;;228.50;127.03;;;0.00;99.90;;;;;;5091110;28;20430;-74
2020/12/02 02:32:24;;;;;;;224.20;126.32;;;0.00;99.90;;;;;;5093635;28;20402;-75
2020/12/02 02:34:54;;;;;;;227.35;128.70;;;-0.20;99.90;;;;;;5094067;28;20365;-75
2020/12/02 02:37:24;;;;;;;217.27;120.43;;;-0.20;99.90;;;;;;5092914;28;20451;-74
2020/12/02 02:39:51;;;;;;;215.00;123.35;;;-0.10;99.90;;;;;;5093946;28;20365;-75
2020/12/02 02:42:38;;;;;;;239.18;138.20;;;-0.10;99.90;;;;;;5093999;28;20376;-75
2020/12/02 02:45:23;;;;;;;245.68;138.90;;;-0.10;99.90;;;;;;5093786;28;20368;-75
2020/12/02 02:47:49;;;;;;;242.90;137.88;;;-0.20;99.90;;;;;;5092669;28;20800;-74
2020/12/02 02:50:17;;;;;;;247.23;138.38;;;-0.20;99.90;;;;;;5093432;28;20874;-75
2020/12/02 02:52:43;;;;;;;233.50;127.47;;;-0.20;99.90;;;;;;5093635;28;20388;-74
2020/12/02 02:55:15;;;;;;;229.50;128.30;;;-0.10;99.90;;;;;;5093348;28;20831;-74
2020/12/02 02:57:41;;;;;;;235.70;128.93;;;-0.20;99.90;;;;;;5093523;28;20824;-74
2020/12/02 03:00:11;;;;;;;235.75;128.25;;;-0.20;99.90;;;;;;5092229;28;20370;-74
2020/12/02 03:02:37;;;;;;;242.70;135.73;;;-0.20;99.90;;;;;;5091990;28;20404;-74
2020/12/02 03:05:06;;;;;;;261.23;140.88;;;-0.30;99.90;;;;;;5093108;28;20360;-74
2020/12/02 03:07:32;;;;;;;278.63;151.00;;;-0.30;99.90;;;;;;5093053;28;20383;-74
2020/12/02 03:09:58;;;;;;;276.08;149.13;;;-0.30;99.90;;;;;;5093133;28;20439;-74
2020/12/02 03:12:25;;;;;;;252.20;139.13;;;-0.40;99.90;;;;;;5092863;28;20380;-74
2020/12/02 03:14:53;;;;;;;235.13;131.98;;;-0.30;99.90;;;;;;5092872;28;20827;-74
2020/12/02 03:17:22;;;;;;;242.70;135.57;;;-0.40;99.90;;;;;;5092765;28;20417;-74
2020/12/02 03:19:54;;;;;;;271.95;150.77;;;-0.40;99.90;;;;;;5092955;28;20395;-74
2020/12/02 03:22:22;;;;;;;274.08;153.82;;;-0.30;99.90;;;;;;5093085;28;20361;-74
2020/12/02 03:24:51;;;;;;;258.77;148.10;;;-0.30;99.90;;;;;;5092987;28;20376;-74
2020/12/02 03:27:17;;;;;;;255.05;144.55;;;-0.30;99.90;;;;;;5092871;28;20773;-74
2020/12/02 03:29:43;;;;;;;236.65;138.85;;;-0.30;99.90;;;;;;5092552;28;20392;-74
2020/12/02 03:32:09;;;;;;;242.70;139.43;;;-0.40;99.90;;;;;;5090774;28;20906;-74
2020/12/02 03:34:35;;;;;;;264.67;148.73;;;-0.40;99.90;;;;;;5092752;28;20728;-74
2020/12/02 03:37:01;;;;;;;227.55;129.55;;;-0.50;99.90;;;;;;5092714;28;20364;-74
2020/12/02 03:39:27;;;;;;;210.13;119.90;;;-0.60;99.90;;;;;;5091310;28;20414;-74
2020/12/02 03:41:53;;;;;;;194.50;113.47;;;-0.60;99.90;;;;;;5091821;28;20360;-74
2020/12/02 03:44:18;;;;;;;191.57;108.88;;;-0.60;99.90;;;;;;5092143;28;20420;-74
2020/12/02 03:46:44;;;;;;;185.65;105.22;;;-0.70;99.90;;;;;;5091022;28;20365;-74
2020/12/02 03:49:10;;;;;;;179.77;101.65;;;-0.80;99.90;;;;;;5092329;28;20375;-74
2020/12/02 03:51:36;;;;;;;158.32;93.07;;;-0.90;99.90;;;;;;5092274;28;20455;-73
2020/12/02 03:54:03;;;;;;;159.98;92.68;;;-0.90;99.90;;;;;;5092126;28;20407;-74
2020/12/02 03:56:29;;;;;;;149.65;88.68;;;-0.90;99.90;;;;;;5090591;28;20455;-74
2020/12/02 03:58:55;;;;;;;149.05;85.72;;;-0.90;99.90;;;;;;5091885;28;20364;-74
2020/12/02 04:01:22;;;;;;;169.67;88.87;;;-0.90;99.90;;;;;;5092139;28;20379;-74
2020/12/02 04:03:48;;;;;;;144.23;86.13;;;-0.80;99.90;;;;;;5091912;28;20379;-74
2020/12/02 04:06:15;;;;;;;142.85;84.43;;;-0.80;99.90;;;;;;5090551;28;20408;-74
2020/12/02 04:08:42;;;;;;;143.38;85.38;;;-0.90;99.90;;;;;;5091963;28;20376;-73
2020/12/02 04:11:09;;;;;;;137.18;82.20;;;-0.90;99.90;;;;;;5091766;28;20839;-73
2020/12/02 04:13:35;;;;;;;133.60;80.13;;;-0.90;99.90;;;;;;5091721;28;20388;-74
2020/12/02 04:16:01;;;;;;;138.60;79.55;;;-0.90;99.90;;;;;;5091591;28;20371;-74
2020/12/02 04:18:28;;;;;;;133.30;81.18;;;-0.90;99.90;;;;;;5090521;28;20376;-74
2020/12/02 04:20:54;;;;;;;150.65;89.00;;;-0.90;99.90;;;;;;5091674;28;20395;-74
2020/12/02 04:23:20;;;;;;;143.80;82.65;;;-0.90;99.90;;;;;;5091925;28;20383;-74
2020/12/02 04:25:45;;;;;;;134.50;81.97;;;-0.80;99.90;;;;;;5090246;28;20384;-74
2020/12/02 04:28:12;;;;;;;165.25;89.38;;;-0.80;99.90;;;;;;5091649;28;20451;-74
2020/12/02 04:30:39;;;;;;;145.93;87.72;;;-0.90;99.90;;;;;;5091499;28;20396;-74
2020/12/02 04:33:05;;;;;;;129.73;78.32;;;-0.90;99.90;;;;;;5091745;28;20392;-74
2020/12/02 04:35:31;;;;;;;132.52;79.00;;;-0.90;99.90;;;;;;5091739;28;20357;-74
2020/12/02 04:37:57;;;;;;;144.00;85.80;;;-0.90;99.90;;;;;;5092103;28;20379;-74
2020/12/02 04:40:26;;;;;;;169.27;102.60;;;-0.90;99.90;;;;;;5092260;28;20440;-74
2020/12/02 04:42:59;;;;;;;196.35;120.95;;;-0.90;99.90;;;;;;5092185;28;20376;-74
2020/12/02 04:45:29;;;;;;;227.85;131.95;;;-0.90;99.90;;;;;;5091939;28;20367;-74
2020/12/02 04:47:59;;;;;;;245.23;141.93;;;-0.90;99.90;;;;;;5091281;28;20898;-74
2020/12/02 04:50:28;;;;;;;275.88;159.13;;;-0.80;99.90;;;;;;5090212;28;20806;-74
2020/12/02 04:53:04;;;;;;;294.55;165.52;;;-0.70;99.90;;;;;;5090312;28;20846;-74
2020/12/02 04:55:30;;;;;;;341.08;188.77;;;-0.80;99.90;;;;;;5089785;28;20404;-74
2020/12/02 04:57:56;;;;;;;379.17;221.43;;;-0.80;99.90;;;;;;5091744;28;20407;-74
2020/12/02 05:00:27;;;;;;;359.58;212.07;;;-0.70;99.90;;;;;;5091811;28;20870;-74
2020/12/02 05:03:03;;;;;;;345.70;204.68;;;-0.70;99.90;;;;;;5091548;28;20372;-74
2020/12/02 05:05:29;;;;;;;286.58;170.63;;;-0.80;99.90;;;;;;5091536;28;20360;-74
2020/12/02 05:07:54;;;;;;;264.88;154.05;;;-0.90;99.90;;;;;;5091651;28;20364;-74
2020/12/02 05:10:20;;;;;;;311.15;181.52;;;-0.90;99.90;;;;;;5091620;28;20460;-74
2020/12/02 05:12:47;;;;;;;339.52;198.73;;;-1.00;99.90;;;;;;5091630;28;20395;-74
2020/12/02 05:15:28;;;;;;;250.50;145.23;;;-1.20;99.90;;;;;;5091737;28;20365;-74
2020/12/02 05:18:19;;;;;;;195.40;111.93;;;-1.30;99.90;;;;;;5091325;28;20352;-74
2020/12/02 05:21:00;;;;;;;175.25;98.55;;;-1.30;99.90;;;;;;5091446;28;20414;-74
2020/12/02 05:23:27;;;;;;;130.20;74.47;;;-1.40;99.90;;;;;;5091642;28;20376;-75
2020/12/02 05:25:53;;;;;;;123.70;70.15;;;-1.50;99.90;;;;;;5090365;28;20376;-75
2020/12/02 05:28:30;;;;;;;136.55;80.07;;;-1.60;99.90;;;;;;5091608;28;20376;-75
2020/12/02 05:31:12;;;;;;;125.82;74.28;;;-1.70;99.90;;;;;;5091477;28;20463;-75
2020/12/02 05:33:39;;;;;;;119.03;68.90;;;-1.70;99.90;;;;;;5090150;28;20441;-75
2020/12/02 05:36:12;;;;;;;127.55;72.07;;;-1.70;99.90;;;;;;5091030;28;20452;-74
2020/12/02 05:38:43;;;;;;;115.82;65.63;;;-1.80;99.90;;;;;;5091280;28;20364;-75
2020/12/02 05:41:14;;;;;;;115.70;65.60;;;-1.80;99.90;;;;;;5091266;28;20364;-74
2020/12/02 05:43:51;;;;;;;120.40;68.07;;;-1.80;99.90;;;;;;5091229;28;20364;-74
2020/12/02 05:46:28;;;;;;;111.07;65.50;;;-1.80;99.90;;;;;;5090854;28;20360;-75
2020/12/02 05:49:06;;;;;;;107.53;64.40;;;-1.80;99.90;;;;;;5091206;28;20372;-74
2020/12/02 05:51:33;;;;;;;130.05;77.38;;;-1.70;99.90;;;;;;5089516;28;20376;-74
2020/12/02 05:54:07;;;;;;;148.20;89.28;;;-1.70;99.90;;;;;;5090477;28;20384;-74
2020/12/02 05:56:33;;;;;;;162.27;94.72;;;-1.70;99.90;;;;;;5090586;28;20459;-74
2020/12/02 05:59:01;;;;;;;151.00;91.75;;;-1.70;99.90;;;;;;5090797;28;20451;-75
2020/12/02 06:01:29;;;;;;;155.55;90.28;;;-1.60;99.90;;;;;;5090967;28;20368;-74
2020/12/02 06:03:56;;;;;;;151.50;89.85;;;-1.60;99.90;;;;;;5090806;28;20735;-75
2020/12/02 06:06:26;;;;;;;153.30;91.13;;;-1.60;99.90;;;;;;5094248;28;20364;-74
2020/12/02 06:08:52;;;;;;;165.52;93.85;;;-1.50;99.90;;;;;;5094679;28;20364;-74
2020/12/02 06:11:18;;;;;;;157.77;92.07;;;-1.60;99.90;;;;;;5094831;28;20357;-75
2020/12/02 06:13:51;;;;;;;150.00;88.82;;;-1.50;99.90;;;;;;5094740;28;20360;-74
2020/12/02 06:16:37;;;;;;;161.93;94.65;;;-1.60;99.90;;;;;;5094664;28;20396;-74
2020/12/02 06:19:42;;;;;;;207.53;113.70;;;-1.60;99.90;;;;;;5094276;28;20375;-74
2020/12/02 06:22:08;;;;;;;136.10;79.75;;;-1.70;99.90;;;;;;5094493;28;20382;-74
2020/12/02 06:24:50;;;;;;;126.70;69.57;;;-1.70;99.90;;;;;;5094750;28;20911;-74
2020/12/02 06:27:15;;;;;;;122.20;69.90;;;-1.70;99.90;;;;;;5093366;28;20420;-74
2020/12/02 06:29:44;;;;;;;135.77;80.13;;;-1.70;99.90;;;;;;5094410;28;20376;-74
2020/12/02 06:32:22;;;;;;;145.18;84.75;;;-1.70;99.90;;;;;;5094115;28;20388;-74
2020/12/02 06:34:49;;;;;;;142.57;83.55;;;-1.60;99.90;;;;;;5094391;28;20360;-75
2020/12/02 06:37:15;;;;;;;138.52;85.53;;;-1.60;99.90;;;;;;5094322;28;20459;-74
2020/12/02 06:39:48;;;;;;;137.53;79.47;;;-1.70;99.90;;;;;;5094296;28;20543;-75
2020/12/02 06:42:32;;;;;;;139.15;81.00;;;-1.60;99.90;;;;;;5093000;28;20360;-74
2020/12/02 06:45:07;;;;;;;130.43;78.47;;;-1.60;99.90;;;;;;5094535;28;20372;-74
2020/12/02 06:47:36;;;;;;;136.43;81.05;;;-1.50;99.90;;;;;;5094304;28;20360;-74
2020/12/02 06:50:08;;;;;;;128.45;76.75;;;-1.50;99.90;;;;;;5093089;28;20360;-75
2020/12/02 06:52:36;;;;;;;126.55;76.18;;;-1.40;99.90;;;;;;5094493;28;20365;-74
2020/12/02 06:55:22;;;;;;;139.20;84.28;;;-1.40;99.90;;;;;;5094252;28;20377;-74
2020/12/02 06:57:55;;;;;;;128.00;79.05;;;-1.30;99.90;;;;;;5093036;28;20384;-74
2020/12/02 07:00:25;;;;;;;137.07;84.63;;;-1.20;99.90;;;;;;5094200;28;20376;-74
2020/12/02 07:02:54;;;;;;;146.90;85.70;;;-1.20;99.90;;;;;;5093648;28;20897;-74
2020/12/02 07:05:46;;;;;;;200.00;93.53;;;-1.20;99.90;;;;;;5093679;28;20400;-74
2020/12/02 07:08:20;;;;;;;241.57;97.50;;;-1.10;99.90;;;;;;5090766;28;20376;-74
2020/12/02 07:11:13;;;;;;;157.57;97.33;;;-1.10;99.90;;;;;;5093295;28;20931;-74
2020/12/02 07:13:43;;;;;;;168.82;100.88;;;-1.00;99.90;;;;;;5093267;28;20380;-74
2020/12/02 07:16:28;;;;;;;176.35;101.70;;;-0.90;99.90;;;;;;5092506;28;20372;-74
2020/12/02 07:19:11;;;;;;;176.02;105.13;;;-0.80;99.90;;;;;;5093531;28;20859;-74
2020/12/02 07:21:49;;;;;;;255.53;142.47;;;-0.80;99.90;;;;;;5093186;28;20742;-74
2020/12/02 07:24:43;;;;;;;210.55;119.72;;;-0.70;99.90;;;;;;5092969;28;20396;-74
2020/12/02 07:27:09;;;;;;;199.68;109.22;;;-0.60;99.90;;;;;;5093280;28;20847;-74
2020/12/02 07:29:35;;;;;;;224.45;119.43;;;-0.60;99.90;;;;;;5091936;28;20376;-74
2020/12/02 07:32:13;;;;;;;193.60;105.38;;;-0.60;99.90;;;;;;5092755;28;20746;-75
2020/12/02 07:34:39;;;;;;;193.68;108.38;;;-0.50;99.90;;;;;;5092266;28;20510;-75
2020/12/02 07:37:20;;;;;;;166.07;101.03;;;-0.40;99.90;;;;;;5093380;28;20365;-74
2020/12/02 07:39:47;;;;;;;132.27;83.00;;;-0.30;99.90;;;;;;5093590;28;20941;-74
2020/12/02 07:42:24;;;;;;;128.68;78.93;;;-0.20;99.90;;;;;;5093298;28;20379;-77
2020/12/02 07:44:59;;;;;;;210.35;122.20;;;-0.10;99.90;;;;;;5093654;28;20363;-74
2020/12/02 07:47:25;;;;;;;163.88;100.13;;;0.00;99.90;;;;;;5093440;28;20373;-75
2020/12/02 07:50:00;;;;;;;156.95;94.03;;;0.00;99.90;;;;;;5093193;28;20365;-75
2020/12/02 07:52:47;;;;;;;170.67;100.53;;;0.10;99.90;;;;;;5093153;28;20447;-75
2020/12/02 07:55:20;;;;;;;112.57;69.07;;;0.20;99.90;;;;;;5092523;28;20375;-75
2020/12/02 07:57:49;;;;;;;122.50;75.75;;;0.20;99.90;;;;;;5092679;28;20369;-74
2020/12/02 08:00:32;;;;;;;114.65;70.82;;;0.30;99.90;;;;;;5092127;28;20368;-74
2020/12/02 08:02:58;;;;;;;121.60;74.97;;;0.40;99.90;;;;;;5091958;28;20886;-74
2020/12/02 08:05:48;;;;;;;125.13;77.13;;;0.40;99.90;;;;;;5091963;28;20397;-74
2020/12/02 08:08:13;;;;;;;136.10;83.23;;;0.50;99.90;;;;;;5091756;28;20724;-74
2020/12/02 08:10:39;;;;;;;137.03;84.53;;;0.50;99.90;;;;;;5091551;28;20390;-74
2020/12/02 08:13:19;;;;;;;120.55;78.50;;;0.60;99.90;;;;;;5091450;28;20360;-73
2020/12/02 08:15:59;;;;;;;119.20;76.22;;;0.60;99.90;;;;;;5091616;28;20395;-73
2020/12/02 08:18:30;;;;;;;109.40;66.22;;;0.70;99.90;;;;;;5091761;28;21152;-73
2020/12/02 08:21:27;;;;;;;100.93;60.67;;;0.70;99.90;;;;;;5091236;28;20364;-73
2020/12/02 08:24:33;;;;;;;121.72;69.40;;;0.80;99.90;;;;;;5073581;28;20384;-73
2020/12/02 08:27:01;;;;;;;120.50;70.63;;;0.90;99.90;;;;;;5091156;28;20348;-73
2020/12/02 08:29:29;;;;;;;131.80;71.80;;;1.00;99.90;;;;;;5090915;28;20447;-72
2020/12/02 08:32:18;;;;;;;116.90;70.00;;;1.10;99.90;;;;;;5091035;28;20400;-73
2020/12/02 08:34:44;;;;;;;109.68;66.53;;;1.20;99.90;;;;;;5082445;28;20381;-72
2020/12/02 08:37:10;;;;;;;114.72;67.05;;;1.30;99.90;;;;;;5091040;28;20398;-73
2020/12/02 08:39:40;;;;;;;107.78;65.15;;;1.30;99.90;;;;;;5089537;28;20388;-73
2020/12/02 08:42:06;;;;;;;105.40;62.97;;;1.30;99.90;;;;;;5090632;28;20391;-72
2020/12/02 08:44:32;;;;;;;133.82;76.85;;;1.40;99.90;;;;;;5089427;28;20808;-72
2020/12/02 08:47:10;;;;;;;134.23;76.95;;;1.60;99.90;;;;;;5090539;28;20368;-73
2020/12/02 08:49:36;;;;;;;133.15;58.60;;;1.60;99.90;;;;;;5090620;28;20414;-71
2020/12/02 08:52:03;;;;;;;127.15;57.33;;;2.10;99.90;;;;;;5086789;28;20765;-71
2020/12/02 08:54:29;;;;;;;118.63;73.97;;;2.50;99.90;;;;;;5081907;28;20364;-72
2020/12/02 08:57:03;;;;;;;138.83;80.33;;;2.70;99.90;;;;;;5088256;28;21214;-72
2020/12/02 08:59:29;;;;;;;126.68;77.30;;;2.50;99.90;;;;;;5090988;28;20366;-74
2020/12/02 09:02:02;;;;;;;277.13;154.52;;;2.50;99.90;;;;;;5091293;28;21149;-73
2020/12/02 09:04:28;;;;;;;109.67;67.77;;;2.40;99.90;;;;;;5103710;28;20475;-72
2020/12/02 09:06:54;;;;;;;141.43;87.90;;;2.40;99.90;;;;;;5098667;28;20362;-72
2020/12/02 09:09:20;;;;;;;137.20;81.80;;;2.40;99.90;;;;;;5095305;28;20384;-72
2020/12/02 09:11:45;;;;;;;190.55;124.20;;;2.50;99.90;;;;;;5106018;28;20370;-72
2020/12/02 09:14:11;;;;;;;196.85;121.18;;;2.60;99.90;;;;;;5092600;28;20374;-73
2020/12/02 09:16:38;;;;;;;111.15;68.20;;;2.70;99.90;;;;;;5102889;28;20872;-73
2020/12/02 09:19:08;;;;;;;144.40;88.97;;;2.70;99.90;;;;;;5098461;28;20455;-72
2020/12/02 09:21:34;;;;;;;177.93;120.57;;;2.70;99.90;;;;;;5104185;28;20382;-73
2020/12/02 09:24:00;;;;;;;129.30;78.50;;;2.80;99.90;;;;;;5090486;28;20392;-72
2020/12/02 09:26:29;;;;;;;138.60;81.93;;;2.80;99.90;;;;;;5094677;28;20393;-73
2020/12/02 09:28:56;;;;;;;129.82;76.55;;;2.80;99.90;;;;;;5098145;28;20797;-73
2020/12/02 09:31:23;;;;;;;108.13;66.78;;;2.80;99.90;;;;;;5102388;28;20868;-73
2020/12/02 09:33:50;;;;;;;113.40;68.05;;;2.90;99.90;;;;;;5097852;28;20378;-74
2020/12/02 09:36:19;;;;;;;109.53;67.00;;;3.00;99.90;;;;;;5099340;28;20855;-73
2020/12/02 09:38:49;;;;;;;116.82;69.28;;;3.00;99.90;;;;;;5103216;28;20752;-73
2020/12/02 09:41:21;;;;;;;113.03;70.07;;;3.00;99.90;;;;;;5091649;28;20364;-73
2020/12/02 09:44:23;;;;;;;105.50;64.85;;;2.90;99.90;;;;;;5103097;28;20387;-73
2020/12/02 09:47:06;;;;;;;106.30;65.72;;;2.80;99.90;;;;;;5103194;28;20437;-73
2020/12/02 09:49:33;;;;;;;99.55;62.05;;;2.80;99.90;;;;;;5076703;28;20393;-73
2020/12/02 09:52:15;;;;;;;104.93;63.75;;;2.70;99.90;;;;;;5101633;28;20831;-73
2020/12/02 09:54:43;;;;;;;230.35;142.15;;;2.60;99.90;;;;;;5102231;28;20378;-73
2020/12/02 09:57:26;;;;;;;218.05;130.70;;;2.70;99.90;;;;;;5092553;28;20832;-73
2020/12/02 09:59:59;;;;;;;221.30;121.30;;;2.90;99.90;;;;;;5102369;28;20379;-73
2020/12/02 10:02:36;;;;;;;237.70;123.47;;;2.70;99.90;;;;;;5099561;28;20370;-74
2020/12/02 10:05:17;;;;;;;521.60;332.60;;;3.00;99.90;;;;;;5092494;28;20440;-73
2020/12/02 10:07:52;;;;;;;399.67;290.38;;;2.90;99.90;;;;;;5079068;28;20355;-73
2020/12/02 10:10:42;;;;;;;262.45;154.20;;;2.80;99.90;;;;;;5098279;28;20400;-73
2020/12/02 10:13:26;;;;;;;358.80;218.23;;;2.80;99.90;;;;;;5105037;28;20415;-73
2020/12/02 10:16:29;;;;;;;287.23;153.55;;;2.80;99.90;;;;;;5095255;28;20358;-73
2020/12/02 10:19:20;;;;;;;214.68;113.72;;;2.80;99.90;;;;;;5091735;28;20379;-73
2020/12/02 10:22:01;;;;;;;81.30;50.95;;;2.70;99.90;;;;;;5080200;28;20854;-73
2020/12/02 10:24:57;;;;;;;93.50;56.03;;;2.60;99.90;;;;;;5096773;28;21188;-73
2020/12/02 10:28:07;;;;;;;93.25;59.63;;;2.60;99.90;;;;;;5105086;28;20366;-73
2020/12/02 10:30:45;;;;;;;100.03;69.22;;;2.70;99.90;;;;;;5100625;28;20370;-73
2020/12/02 10:33:49;;;;;;;73.78;48.03;;;2.70;99.90;;;;;;5089995;28;21084;-73
2020/12/02 10:36:15;;;;;;;89.25;58.42;;;2.80;99.90;;;;;;5098993;28;20468;-73
2020/12/02 10:38:47;;;;;;;325.58;180.68;;;2.70;99.90;;;;;;5101411;28;20421;-73
2020/12/02 10:41:54;;;;;;;150.70;87.22;;;2.80;99.90;;;;;;5091959;28;20364;-73
2020/12/02 10:44:38;;;;;;;181.60;98.60;;;2.80;99.90;;;;;;5055136;28;20402;-74
2020/12/02 10:47:41;;;;;;;351.98;183.73;;;3.30;99.90;;;;;;5093480;28;20879;-73
2020/12/02 10:50:08;;;;;;;130.80;64.70;;;3.80;99.90;;;;;;5100602;28;20863;-75
2020/12/02 10:52:34;;;;;;;122.72;77.25;;;3.80;99.90;;;;;;5106193;28;20725;-74
2020/12/02 10:55:01;;;;;;;76.27;48.77;;;3.60;99.90;;;;;;5096578;28;20375;-74
2020/12/02 10:57:27;;;;;;;82.78;53.67;;;3.40;99.90;;;;;;5107125;28;20370;-74
2020/12/02 10:59:56;;;;;;;61.43;40.57;;;3.30;99.90;;;;;;5098316;28;20405;-74
2020/12/02 11:02:27;;;;;;;106.03;72.75;;;3.10;99.90;;;;;;5102128;28;20368;-74
2020/12/02 11:04:53;;;;;;;73.93;49.05;;;3.10;99.90;;;;;;5106262;28;20382;-74
2020/12/02 11:07:27;;;;;;;74.03;48.13;;;3.00;99.90;;;;;;5095567;28;20376;-75
2020/12/02 11:10:19;;;;;;;81.85;49.13;;;2.90;99.90;;;;;;5106154;28;20839;-73
2020/12/02 11:13:09;;;;;;;75.90;49.50;;;3.00;99.90;;;;;;5104347;28;20428;-73
2020/12/02 11:15:56;;;;;;;69.63;44.58;;;3.00;99.90;;;;;;5078686;28;20402;-73
2020/12/02 11:18:43;;;;;;;68.68;41.58;;;3.10;99.90;;;;;;5101383;28;20372;-75
2020/12/02 11:21:22;;;;;;;71.67;45.17;;;3.10;99.90;;;;;;5107194;28;21027;-74
2020/12/02 11:24:16;;;;;;;70.93;45.03;;;3.10;99.90;;;;;;5097100;28;20398;-74
2020/12/02 11:26:42;;;;;;;70.43;44.70;;;3.20;99.90;;;;;;5098467;28;20399;-74
2020/12/02 11:29:11;;;;;;;168.70;84.07;;;3.20;99.90;;;;;;5108175;28;20365;-74
2020/12/02 11:31:46;;;;;;;193.43;105.93;;;3.50;99.90;;;;;;5079014;28;20391;-74
2020/12/02 11:34:33;;;;;;;77.03;47.08;;;4.10;99.90;;;;;;5102491;28;20379;-74
2020/12/02 11:37:09;;;;;;;99.28;62.30;;;3.80;99.90;;;;;;5091696;28;20378;-74
2020/12/02 11:39:42;;;;;;;219.48;130.35;;;3.70;99.90;;;;;;5083835;28;20445;-75
2020/12/02 11:42:40;;;;;;;167.80;94.60;;;3.70;99.90;;;;;;5102861;28;20373;-74
2020/12/02 11:45:14;;;;;;;283.57;152.67;;;3.70;99.90;;;;;;5077847;28;20444;-74
2020/12/02 11:47:43;;;;;;;362.27;175.87;;;3.70;99.90;;;;;;5090812;28;20469;-73
2020/12/02 11:50:21;;;;;;;324.27;206.27;;;3.80;99.90;;;;;;5098611;28;20410;-74
2020/12/02 11:53:16;;;;;;;152.15;95.72;;;3.80;99.90;;;;;;5097070;28;20886;-73
2020/12/02 11:55:43;;;;;;;126.65;78.78;;;3.80;99.90;;;;;;5079737;28;20450;-74
2020/12/02 11:58:11;;;;;;;131.93;81.45;;;3.80;99.90;;;;;;5102669;28;20365;-74
2020/12/02 12:00:37;;;;;;;95.23;61.43;;;3.90;99.90;;;;;;5101720;28;20385;-74
2020/12/02 12:03:19;;;;;;;104.55;58.72;;;3.90;99.90;;;;;;5093756;28;20399;-74
2020/12/02 12:06:11;;;;;;;147.67;60.17;;;3.90;99.90;;;;;;5080946;28;20366;-73
2020/12/02 12:08:52;;;;;;;87.90;51.35;;;4.10;99.90;;;;;;5098196;28;20364;-73
2020/12/02 12:11:24;;;;;;;115.40;65.95;;;4.00;99.90;;;;;;5105143;28;20381;-73
2020/12/02 12:14:14;;;;;;;88.97;53.70;;;4.10;99.90;;;;;;5096166;28;20378;-73
2020/12/02 12:17:06;;;;;;;92.45;54.25;;;4.10;99.90;;;;;;5096026;28;20771;-73
2020/12/02 12:19:40;;;;;;;86.72;50.63;;;4.20;99.90;;;;;;5106500;28;20376;-73
2020/12/02 12:22:30;;;;;;;68.70;44.37;;;4.20;99.90;;;;;;5098225;28;20385;-73
2020/12/02 12:25:04;;;;;;;65.93;43.00;;;4.20;99.90;;;;;;5094761;28;20458;-72
2020/12/02 12:27:30;;;;;;;77.95;49.03;;;4.40;99.90;;;;;;5106426;28;20399;-73
2020/12/02 12:29:56;;;;;;;75.87;49.10;;;4.60;99.90;;;;;;5096476;28;20433;-73
2020/12/02 12:32:42;;;;;;;60.90;40.17;;;4.80;99.90;;;;;;5099031;28;20395;-73
2020/12/02 12:35:21;;;;;;;68.15;43.03;;;5.00;99.90;;;;;;5106364;28;20374;-73
2020/12/02 12:38:25;;;;;;;68.55;44.30;;;5.20;99.90;;;;;;5080159;28;20390;-73
2020/12/02 12:41:03;;;;;;;86.75;57.28;;;5.30;99.90;;;;;;5052190;28;20442;-73
2020/12/02 12:43:46;;;;;;;58.42;38.95;;;5.70;99.90;;;;;;5102163;28;20482;-74
2020/12/02 12:46:20;;;;;;;51.88;35.35;;;5.70;99.30;;;;;;5098696;28;20386;-74
2020/12/02 12:48:46;;;;;;;53.95;37.40;;;5.70;98.00;;;;;;5095635;28;20360;-73
2020/12/02 12:51:15;;;;;;;51.95;35.63;;;5.60;98.90;;;;;;5106246;28;20929;-73
2020/12/02 12:53:42;;;;;;;49.40;34.40;;;5.50;98.10;;;;;;5093865;28;20458;-72